createdAt,value
2023-04-16T00:00:00.021Z,99807.81
2023-04-16T00:02:27.499Z,99801.94
2023-04-16T00:04:55.037Z,99801.72
2023-04-16T00:07:22.522Z,99799.84
2023-04-16T00:09:49.744Z,99803.19
2023-04-16T00:12:17.411Z,99797.81
2023-04-16T00:14:44.772Z,99793.28
2023-04-16T00:17:12.209Z,99803.06
2023-04-16T00:19:39.749Z,99803.97
2023-04-16T00:22:07.013Z,99802.13
2023-04-16T00:24:34.414Z,99793.59
2023-04-16T00:27:01.786Z,99787.81
2023-04-16T00:29:29.106Z,99794.06
2023-04-16T00:31:56.447Z,99793.53
2023-04-16T00:34:23.893Z,99789.38
2023-04-16T00:36:51.147Z,99781.44
2023-04-16T00:39:18.448Z,99786.50
2023-04-16T00:41:46.183Z,99783.94
2023-04-16T00:44:13.460Z,99777.28
2023-04-16T00:46:40.927Z,99776.78
2023-04-16T00:49:08.541Z,99774.97
2023-04-16T00:51:36.355Z,99772.00
2023-04-16T00:54:03.854Z,99769.66
2023-04-16T00:56:31.964Z,99770.91
2023-04-16T00:58:59.434Z,99774.22
2023-04-16T01:01:27.609Z,99770.56
2023-04-16T01:03:55.288Z,99768.78
2023-04-16T01:06:22.670Z,99766.81
2023-04-16T01:08:49.999Z,99762.00
2023-04-16T01:11:17.326Z,99755.44
2023-04-16T01:13:44.642Z,99757.88
2023-04-16T01:16:12.288Z,99751.97
2023-04-16T01:18:40.124Z,99751.22
2023-04-16T01:21:07.830Z,99751.78
2023-04-16T01:23:35.213Z,99747.56
2023-04-16T01:26:02.476Z,99750.25
2023-04-16T01:28:29.920Z,99741.38
2023-04-16T01:30:57.367Z,99742.97
2023-04-16T01:33:24.803Z,99744.38
2023-04-16T01:35:52.054Z,99738.25
2023-04-16T01:38:19.319Z,99737.25
2023-04-16T01:40:46.658Z,99737.25
2023-04-16T01:43:13.923Z,99729.50
2023-04-16T01:45:41.375Z,99731.47
2023-04-16T01:48:09.241Z,99731.16
2023-04-16T01:50:37.306Z,99728.59
2023-04-16T01:53:04.557Z,99730.50
2023-04-16T01:55:34.910Z,99730.56
2023-04-16T01:58:02.137Z,99732.38
2023-04-16T02:00:29.793Z,99735.09
2023-04-16T02:02:57.385Z,99737.69
2023-04-16T02:05:24.820Z,99738.41
2023-04-16T02:07:52.155Z,99741.97
2023-04-16T02:10:19.414Z,99742.59
2023-04-16T02:12:47.060Z,99736.09
2023-04-16T02:15:15.159Z,99738.78
2023-04-16T02:17:42.570Z,99735.59
2023-04-16T02:20:10.464Z,99736.50
2023-04-16T02:22:37.795Z,99732.66
2023-04-16T02:25:05.583Z,99734.03
2023-04-16T02:27:33.095Z,99729.22
2023-04-16T02:30:00.591Z,99729.06
2023-04-16T02:32:27.904Z,99732.66
2023-04-16T02:34:55.163Z,99736.53
2023-04-16T02:37:23.157Z,99726.63
2023-04-16T02:39:50.525Z,99719.31
2023-04-16T02:42:17.839Z,99713.53
2023-04-16T02:44:45.185Z,99718.28
2023-04-16T02:47:12.687Z,99712.75
2023-04-16T02:49:39.970Z,99724.69
2023-04-16T02:52:07.309Z,99725.25
2023-04-16T02:54:34.634Z,99727.06
2023-04-16T02:57:01.918Z,99733.53
2023-04-16T02:59:29.262Z,99728.84
2023-04-16T03:01:56.548Z,99728.94
2023-04-16T03:04:23.973Z,99728.63
2023-04-16T03:06:51.334Z,99735.81
2023-04-16T03:09:18.706Z,99735.19
2023-04-16T03:11:45.995Z,99742.38
2023-04-16T03:14:13.319Z,99733.81
2023-04-16T03:16:40.663Z,99741.06
2023-04-16T03:19:08.705Z,99735.69
2023-04-16T03:21:36.183Z,99745.25
2023-04-16T03:24:03.698Z,99747.94
2023-04-16T03:26:30.979Z,99743.13
2023-04-16T03:28:58.366Z,99746.63
2023-04-16T03:31:26.056Z,99742.56
2023-04-16T03:33:53.996Z,99740.97
2023-04-16T03:36:21.408Z,99741.44
2023-04-16T03:38:51.514Z,99748.16
2023-04-16T03:41:27.774Z,99745.91
2023-04-16T03:43:55.042Z,99748.53
2023-04-16T03:46:22.272Z,99743.19
2023-04-16T03:48:51.010Z,99747.81
2023-04-16T03:51:18.885Z,99756.16
2023-04-16T03:53:46.928Z,99769.06
2023-04-16T03:56:14.887Z,99749.94
2023-04-16T03:58:43.464Z,99740.69
2023-04-16T04:01:11.476Z,99761.25
2023-04-16T04:03:39.979Z,99751.66
2023-04-16T04:06:08.724Z,99757.09
2023-04-16T04:08:36.822Z,99754.25
2023-04-16T04:11:04.932Z,99766.28
2023-04-16T04:13:32.751Z,99758.44
2023-04-16T04:16:00.122Z,99761.63
2023-04-16T04:18:27.938Z,99761.78
2023-04-16T04:20:55.240Z,99760.47
2023-04-16T04:23:44.560Z,99761.56
2023-04-16T04:26:11.945Z,99760.72
2023-04-16T04:28:41.873Z,99763.25
2023-04-16T04:31:27.306Z,99769.44
2023-04-16T04:33:56.028Z,99768.66
2023-04-16T04:36:29.843Z,99765.94
2023-04-16T04:39:06.940Z,99769.81
2023-04-16T04:41:34.955Z,99785.03
2023-04-16T04:44:03.720Z,99783.06
2023-04-16T04:46:31.184Z,99783.13
2023-04-16T04:49:05.612Z,99790.06
2023-04-16T04:51:33.057Z,99787.44
2023-04-16T04:54:00.481Z,99784.88
2023-04-16T04:56:27.778Z,99780.31
2023-04-16T04:58:55.104Z,99785.47
2023-04-16T05:01:22.717Z,99784.69
2023-04-16T05:03:50.433Z,99784.28
2023-04-16T05:06:29.664Z,99786.59
2023-04-16T05:09:04.766Z,99784.41
2023-04-16T05:11:33.928Z,99773.56
2023-04-16T05:14:01.583Z,99777.19
2023-04-16T05:16:28.976Z,99774.44
2023-04-16T05:18:56.358Z,99771.75
2023-04-16T05:21:24.204Z,99773.59
2023-04-16T05:23:51.530Z,99770.44
2023-04-16T05:26:18.848Z,99777.16
2023-04-16T05:28:46.265Z,99772.13
2023-04-16T05:31:13.685Z,99769.94
2023-04-16T05:33:41.043Z,99773.97
2023-04-16T05:36:08.428Z,99771.16
2023-04-16T05:38:35.663Z,99775.19
2023-04-16T05:41:02.886Z,99774.88
2023-04-16T05:43:30.203Z,99769.72
2023-04-16T05:45:57.563Z,99778.13
2023-04-16T05:48:25.354Z,99771.75
2023-04-16T05:50:52.813Z,99764.88
2023-04-16T05:53:20.249Z,99763.28
2023-04-16T05:55:47.526Z,99764.13
2023-04-16T05:58:14.827Z,99760.88
2023-04-16T06:00:42.243Z,99754.19
2023-04-16T06:03:09.640Z,99759.78
2023-04-16T06:05:37.027Z,99753.16
2023-04-16T06:08:04.403Z,99751.69
2023-04-16T06:10:53.165Z,99742.38
2023-04-16T06:13:20.530Z,99745.28
2023-04-16T06:16:15.470Z,99739.41
2023-04-16T06:19:16.298Z,99739.28
2023-04-16T06:21:43.754Z,99743.50
2023-04-16T06:24:11.256Z,99742.09
2023-04-16T06:26:38.767Z,99748.09
2023-04-16T06:29:06.151Z,99748.47
2023-04-16T06:31:33.691Z,99741.31
2023-04-16T06:34:01.189Z,99747.00
2023-04-16T06:36:28.536Z,99743.78
2023-04-16T06:38:55.864Z,99740.25
2023-04-16T06:41:23.230Z,99738.34
2023-04-16T06:43:51.144Z,99740.44
2023-04-16T06:46:18.597Z,99734.59
2023-04-16T06:48:46.016Z,99744.09
2023-04-16T06:51:13.444Z,99745.34
2023-04-16T06:53:40.784Z,99745.78
2023-04-16T06:56:08.466Z,99737.38
2023-04-16T06:58:35.729Z,99726.19
2023-04-16T07:01:03.270Z,99740.84
2023-04-16T07:03:31.121Z,99733.28
2023-04-16T07:05:59.959Z,99739.72
2023-04-16T07:08:27.610Z,99728.78
2023-04-16T07:10:55.001Z,99739.22
2023-04-16T07:13:22.337Z,99732.22
2023-04-16T07:15:53.003Z,99751.53
2023-04-16T07:18:20.860Z,99749.41
2023-04-16T07:20:48.257Z,99756.13
2023-04-16T07:23:15.526Z,99764.00
2023-04-16T07:25:42.812Z,99761.50
2023-04-16T07:28:10.279Z,99778.78
2023-04-16T07:30:37.657Z,99778.94
2023-04-16T07:33:05.392Z,99783.75
2023-04-16T07:35:32.866Z,99783.09
2023-04-16T07:38:00.299Z,99792.75
2023-04-16T07:40:27.759Z,99781.03
2023-04-16T07:42:55.411Z,99784.38
2023-04-16T07:45:23.822Z,99791.97
2023-04-16T07:47:51.107Z,99788.31
2023-04-16T07:50:21.072Z,99787.53
2023-04-16T07:52:48.400Z,99778.59
2023-04-16T07:55:15.679Z,99780.53
2023-04-16T08:03:49.280Z,99793.84
2023-04-16T08:06:18.363Z,99794.34
2023-04-16T08:08:45.819Z,99785.06
2023-04-16T08:11:13.228Z,99803.56
2023-04-16T08:13:40.604Z,99794.50
2023-04-16T08:16:08.036Z,99788.72
2023-04-16T08:18:35.377Z,99793.22
2023-04-16T08:21:02.786Z,99793.19
2023-04-16T08:23:30.142Z,99800.97
2023-04-16T08:25:57.450Z,99802.56
2023-04-16T08:28:24.705Z,99797.56
2023-04-16T08:30:52.203Z,99807.66
2023-04-16T08:33:19.673Z,99803.56
2023-04-16T08:35:47.496Z,99805.16
2023-04-16T08:38:15.083Z,99800.25
2023-04-16T08:40:43.398Z,99797.53
2023-04-16T08:43:12.939Z,99795.84
2023-04-16T08:45:41.990Z,99789.44
2023-04-16T08:48:11.956Z,99793.00
2023-04-16T08:50:40.946Z,99787.50
2023-04-16T08:53:11.374Z,99796.84
2023-04-16T08:55:49.234Z,99792.88
2023-04-16T08:58:22.100Z,99792.44
2023-04-16T09:00:50.286Z,99788.03
2023-04-16T09:03:17.938Z,99790.28
2023-04-16T09:05:46.117Z,99801.97
2023-04-16T09:08:13.596Z,99791.50
2023-04-16T09:10:40.898Z,99787.56
2023-04-16T09:13:10.457Z,99791.16
2023-04-16T09:15:39.120Z,99794.47
2023-04-16T09:18:06.386Z,99787.28
2023-04-16T09:20:33.713Z,99786.69
2023-04-16T09:23:01.087Z,99781.69
2023-04-16T09:25:32.762Z,99784.59
2023-04-16T09:28:00.151Z,99790.28
2023-04-16T09:30:28.026Z,99782.56
2023-04-16T09:33:15.361Z,99776.69
2023-04-16T09:35:50.452Z,99779.50
2023-04-16T09:38:18.705Z,99782.66
2023-04-16T09:40:46.380Z,99778.47
2023-04-16T09:43:18.338Z,99775.13
2023-04-16T09:45:50.710Z,99769.34
2023-04-16T09:48:34.255Z,99769.53
2023-04-16T09:51:01.963Z,99765.22
2023-04-16T09:53:31.045Z,99769.94
2023-04-16T09:56:03.400Z,99779.97
2023-04-16T09:58:30.772Z,99771.28
2023-04-16T10:01:08.789Z,99758.25
2023-04-16T10:03:38.847Z,99764.47
2023-04-16T10:06:16.145Z,99765.13
2023-04-16T10:08:49.682Z,99768.41
2023-04-16T10:11:18.746Z,99769.53
2023-04-16T10:13:47.414Z,99766.88
2023-04-16T10:16:14.804Z,99760.06
2023-04-16T10:18:43.788Z,99757.41
2023-04-16T10:21:11.336Z,99751.44
2023-04-16T10:23:39.839Z,99745.91
2023-04-16T10:26:07.142Z,99747.97
2023-04-16T10:28:35.371Z,99744.63
2023-04-16T10:31:05.600Z,99744.31
2023-04-16T10:33:36.071Z,99743.53
2023-04-16T10:36:23.395Z,99736.84
2023-04-16T10:38:52.442Z,99734.78
2023-04-16T10:41:20.694Z,99737.91
2023-04-16T10:43:50.326Z,99728.97
2023-04-16T10:46:26.929Z,99736.25
2023-04-16T10:48:56.252Z,99744.78
2023-04-16T10:51:35.198Z,99740.84
2023-04-16T10:54:27.079Z,99735.00
2023-04-16T10:57:05.812Z,99743.28
2023-04-16T10:59:35.427Z,99740.16
2023-04-16T11:02:08.535Z,99735.00
2023-04-16T11:04:38.596Z,99741.53
2023-04-16T11:07:12.175Z,99739.06
2023-04-16T11:10:03.188Z,99728.06
2023-04-16T11:12:36.031Z,99735.34
2023-04-16T11:15:07.782Z,99731.56
2023-04-16T11:17:37.854Z,99724.53
2023-04-16T11:20:19.363Z,99729.44
2023-04-16T11:22:49.085Z,99730.66
2023-04-16T11:25:20.817Z,99728.78
2023-04-16T11:27:48.539Z,99716.25
2023-04-16T11:30:15.866Z,99716.69
2023-04-16T11:32:44.093Z,99722.09
2023-04-16T11:35:16.015Z,99711.78
2023-04-16T11:37:43.656Z,99715.28
2023-04-16T11:40:12.275Z,99704.44
2023-04-16T11:42:41.358Z,99707.03
2023-04-16T11:45:10.967Z,99699.84
2023-04-16T11:47:49.825Z,99703.97
2023-04-16T11:50:20.645Z,99698.59
2023-04-16T11:52:49.298Z,99693.03
2023-04-16T11:55:17.381Z,99694.75
2023-04-16T11:57:45.012Z,99693.09
2023-04-16T12:00:13.525Z,99691.91
2023-04-16T12:02:46.598Z,99693.84
2023-04-16T12:05:26.329Z,99686.59
2023-04-16T12:07:53.830Z,99683.50
2023-04-16T12:10:22.611Z,99676.06
2023-04-16T12:12:50.064Z,99674.66
2023-04-16T12:15:17.839Z,99678.88
2023-04-16T12:17:45.330Z,99667.75
2023-04-16T12:20:14.234Z,99675.88
2023-04-16T12:22:46.470Z,99664.69
2023-04-16T12:25:16.136Z,99656.66
2023-04-16T12:27:55.065Z,99664.09
2023-04-16T12:30:23.843Z,99657.34
2023-04-16T12:32:55.550Z,99663.38
2023-04-16T12:35:32.855Z,99662.31
2023-04-16T12:38:00.993Z,99667.75
2023-04-16T12:40:28.457Z,99650.81
2023-04-16T12:42:56.723Z,99652.47
2023-04-16T12:45:25.076Z,99637.69
2023-04-16T12:47:52.456Z,99638.81
2023-04-16T12:50:20.489Z,99628.53
2023-04-16T12:52:47.945Z,99624.59
2023-04-16T12:55:15.388Z,99632.59
2023-04-16T12:57:42.736Z,99621.13
2023-04-16T13:00:11.116Z,99619.56
2023-04-16T13:02:39.220Z,99620.44
2023-04-16T13:05:07.506Z,99617.38
2023-04-16T13:07:35.131Z,99620.09
2023-04-16T13:10:02.856Z,99622.69
2023-04-16T13:12:30.178Z,99611.81
2023-04-16T13:14:57.414Z,99604.28
2023-04-16T13:17:24.872Z,99609.44
2023-04-16T13:19:52.319Z,99606.16
2023-04-16T13:22:19.694Z,99606.00
2023-04-16T13:24:47.067Z,99604.22
2023-04-16T13:27:14.375Z,99596.19
2023-04-16T13:29:41.929Z,99603.56
2023-04-16T13:32:09.800Z,99598.56
2023-04-16T13:34:39.920Z,99604.34
2023-04-16T13:37:07.239Z,99594.28
2023-04-16T13:39:34.606Z,99590.31
2023-04-16T13:42:02.067Z,99596.25
2023-04-16T13:44:29.346Z,99586.63
2023-04-16T13:46:56.874Z,99583.66
2023-04-16T13:49:24.251Z,99581.81
2023-04-16T13:51:51.909Z,99574.28
2023-04-16T13:54:19.262Z,99569.91
2023-04-16T13:56:46.702Z,99554.25
2023-04-16T13:59:14.199Z,99564.41
2023-04-16T14:01:41.629Z,99564.31
2023-04-16T14:04:09.076Z,99564.66
2023-04-16T14:06:36.552Z,99565.25
2023-04-16T14:09:04.104Z,99563.44
2023-04-16T14:11:31.567Z,99562.66
2023-04-16T14:13:58.891Z,99565.69
2023-04-16T14:16:26.547Z,99560.28
2023-04-16T14:18:53.901Z,99578.69
2023-04-16T14:21:21.173Z,99578.84
2023-04-16T14:23:48.452Z,99594.31
2023-04-16T14:26:18.372Z,99597.50
2023-04-16T14:28:45.707Z,99605.06
2023-04-16T14:31:13.115Z,99600.53
2023-04-16T14:33:40.444Z,99603.91
2023-04-16T14:36:07.897Z,99614.84
2023-04-16T14:38:35.433Z,99610.78
2023-04-16T14:41:02.762Z,99609.44
2023-04-16T14:43:30.290Z,99626.81
2023-04-16T14:45:57.707Z,99613.63
2023-04-16T14:48:25.034Z,99613.91
2023-04-16T14:50:53.677Z,99613.91
2023-04-16T14:53:23.258Z,99616.25
2023-04-16T14:55:52.020Z,99613.56
2023-04-16T14:58:19.985Z,99618.13
2023-04-16T15:00:47.342Z,99616.34
2023-04-16T15:03:14.920Z,99618.25
2023-04-16T15:05:42.585Z,99618.41
2023-04-16T15:08:09.876Z,99615.94
2023-04-16T15:10:37.472Z,99607.94
2023-04-16T15:13:04.807Z,99623.53
2023-04-16T15:15:32.206Z,99633.41
2023-04-16T15:18:02.739Z,99636.25
2023-04-16T15:20:30.247Z,99629.91
2023-04-16T15:22:57.947Z,99626.88
2023-04-16T15:25:25.384Z,99634.66
2023-04-16T15:27:52.914Z,99637.03
2023-04-16T15:30:20.322Z,99638.81
2023-04-16T15:32:47.658Z,99645.56
2023-04-16T15:35:15.060Z,99644.75
2023-04-16T15:37:42.644Z,99650.06
2023-04-16T15:40:10.090Z,99647.78
2023-04-16T15:42:37.472Z,99650.09
2023-04-16T15:45:05.160Z,99656.13
2023-04-16T15:47:32.559Z,99657.25
2023-04-16T15:50:01.014Z,99654.75
2023-04-16T15:52:28.447Z,99656.72
2023-04-16T15:54:56.019Z,99657.06
2023-04-16T15:57:23.263Z,99659.94
2023-04-16T16:00:05.950Z,99647.97
2023-04-16T16:02:34.385Z,99664.50
2023-04-16T16:05:01.941Z,99660.50
2023-04-16T16:07:29.338Z,99662.88
2023-04-16T16:09:56.732Z,99668.94
2023-04-16T16:12:24.449Z,99664.69
2023-04-16T16:14:52.260Z,99667.94
2023-04-16T16:17:19.913Z,99668.91
2023-04-16T16:19:47.306Z,99663.19
2023-04-16T16:22:14.983Z,99668.44
2023-04-16T16:24:42.388Z,99670.94
2023-04-16T16:27:09.951Z,99670.94
2023-04-16T16:29:37.415Z,99677.97
2023-04-16T16:32:04.947Z,99677.28
2023-04-16T16:34:32.341Z,99676.84
2023-04-16T16:37:00.385Z,99669.22
2023-04-16T16:39:27.732Z,99674.47
2023-04-16T16:41:55.027Z,99688.22
2023-04-16T16:44:22.726Z,99687.91
2023-04-16T16:46:51.000Z,99693.19
2023-04-16T16:49:18.601Z,99691.81
2023-04-16T16:51:46.623Z,99705.00
2023-04-16T16:54:14.298Z,99702.28
2023-04-16T16:56:41.714Z,99709.53
2023-04-16T16:59:09.315Z,99707.47
2023-04-16T17:01:36.829Z,99710.38
2023-04-16T17:04:04.855Z,99711.53
2023-04-16T17:06:32.810Z,99708.06
2023-04-16T17:09:00.337Z,99709.44
2023-04-16T17:11:27.934Z,99718.75
2023-04-16T17:13:55.541Z,99723.81
2023-04-16T17:16:23.024Z,99721.41
2023-04-16T17:18:53.035Z,99716.22
2023-04-16T17:21:20.628Z,99714.75
2023-04-16T17:23:48.410Z,99719.63
2023-04-16T17:26:15.747Z,99712.91
2023-04-16T17:28:43.328Z,99722.81
2023-04-16T17:31:10.581Z,99724.22
2023-04-16T17:33:37.827Z,99727.34
2023-04-16T17:36:05.679Z,99739.97
2023-04-16T17:38:33.101Z,99739.41
2023-04-16T17:41:00.333Z,99752.63
2023-04-16T17:43:27.667Z,99752.44
2023-04-16T17:45:54.977Z,99764.22
2023-04-16T17:48:22.283Z,99755.94
2023-04-16T17:50:49.528Z,99761.00
2023-04-16T17:53:17.356Z,99760.53
2023-04-16T17:55:52.787Z,99767.56
2023-04-16T17:58:22.116Z,99763.47
2023-04-16T18:00:49.256Z,99773.25
2023-04-16T18:03:16.581Z,99786.59
2023-04-16T18:05:44.073Z,99786.22
2023-04-16T18:08:11.374Z,99802.13
2023-04-16T18:10:38.632Z,99802.59
2023-04-16T18:13:06.059Z,99804.19
2023-04-16T18:15:37.655Z,99798.81
2023-04-16T18:18:06.027Z,99799.88
2023-04-16T18:20:35.451Z,99813.69
2023-04-16T18:23:02.845Z,99800.97
2023-04-16T18:25:34.986Z,99815.94
2023-04-16T18:28:02.925Z,99812.31
2023-04-16T18:30:30.798Z,99822.28
2023-04-16T18:35:28.634Z,99825.53
2023-04-16T18:37:55.905Z,99814.63
2023-04-16T18:40:23.243Z,99825.31
2023-04-16T18:42:50.531Z,99830.69
2023-04-16T18:45:21.907Z,99817.06
2023-04-16T18:47:49.561Z,99815.28
2023-04-16T18:50:17.536Z,99820.66
2023-04-16T18:52:45.350Z,99819.84
2023-04-16T18:55:12.834Z,99822.41
2023-04-16T18:57:40.225Z,99825.69
2023-04-16T19:00:08.061Z,99824.72
2023-04-16T19:02:35.633Z,99825.19
2023-04-16T19:05:03.167Z,99824.25
2023-04-16T19:07:30.440Z,99817.72
2023-04-16T19:09:57.552Z,99830.84
2023-04-16T19:12:24.849Z,99825.84
2023-04-16T19:14:54.714Z,99827.53
2023-04-16T19:17:22.015Z,99827.66
2023-04-16T19:19:49.205Z,99821.31
2023-04-16T19:22:16.365Z,99819.59
2023-04-16T19:24:43.571Z,99817.53
2023-04-16T19:27:11.610Z,99815.41
2023-04-16T19:29:42.667Z,99813.50
2023-04-16T19:32:09.941Z,99814.91
2023-04-16T19:34:37.112Z,99813.41
2023-04-16T19:37:04.227Z,99810.66
2023-04-16T19:39:31.363Z,99811.94
2023-04-16T19:41:58.556Z,99811.63
2023-04-16T19:44:26.431Z,99818.22
2023-04-16T19:46:53.618Z,99816.97
2023-04-16T19:49:20.755Z,99817.25
2023-04-16T19:51:47.865Z,99826.28
2023-04-16T19:54:15.271Z,99825.88
2023-04-16T19:56:42.453Z,99825.72
2023-04-16T19:59:09.676Z,99827.69
2023-04-16T20:01:38.072Z,99829.88
2023-04-16T20:04:08.911Z,99820.00
2023-04-16T20:06:36.055Z,99815.03
2023-04-16T20:09:03.227Z,99818.34
2023-04-16T20:11:30.581Z,99819.91
2023-04-16T20:13:57.852Z,99803.22
2023-04-16T20:16:25.015Z,99812.84
2023-04-16T20:18:52.536Z,99815.34
2023-04-16T20:21:20.586Z,99806.16
2023-04-16T20:23:48.224Z,99807.09
2023-04-16T20:26:16.275Z,99817.72
2023-04-16T20:28:43.361Z,99812.34
2023-04-16T20:31:11.060Z,99811.53
2023-04-16T20:33:38.516Z,99817.16
2023-04-16T20:36:06.350Z,99812.78
2023-04-16T20:38:33.512Z,99806.81
2023-04-16T20:41:01.331Z,99816.91
2023-04-16T20:43:28.690Z,99814.16
2023-04-16T20:45:55.999Z,99815.94
2023-04-16T20:48:23.316Z,99812.88
2023-04-16T20:50:50.648Z,99816.22
2023-04-16T20:53:17.745Z,99822.91
2023-04-16T20:55:44.895Z,99814.47
2023-04-16T20:58:12.152Z,99813.78
2023-04-16T21:00:39.268Z,99809.50
2023-04-16T21:03:08.901Z,99819.13
2023-04-16T21:05:36.297Z,99814.69
2023-04-16T21:08:03.915Z,99811.38
2023-04-16T21:10:33.520Z,99814.28
2023-04-16T21:13:00.772Z,99810.56
2023-04-16T21:15:27.971Z,99813.97
2023-04-16T21:17:55.098Z,99816.16
2023-04-16T21:20:23.480Z,99808.91
2023-04-16T21:22:50.626Z,99820.03
2023-04-16T21:25:17.781Z,99818.06
2023-04-16T21:27:44.948Z,99810.28
2023-04-16T21:30:13.431Z,99807.09
2023-04-16T21:32:43.032Z,99814.34
2023-04-16T21:35:10.645Z,99812.38
2023-04-16T21:37:37.944Z,99807.81
2023-04-16T21:40:08.214Z,99806.69
2023-04-16T21:42:36.071Z,99799.16
2023-04-16T21:45:03.467Z,99813.59
2023-04-16T21:47:30.685Z,99800.91
2023-04-16T21:49:57.852Z,99807.19
2023-04-16T21:52:24.970Z,99810.22
2023-04-16T21:54:52.242Z,99805.59
2023-04-16T21:57:19.330Z,99807.56
2023-04-16T21:59:46.434Z,99808.75
2023-04-16T22:02:13.698Z,99806.78
2023-04-16T22:04:40.931Z,99805.88
2023-04-16T22:07:10.675Z,99808.97
2023-04-16T22:09:38.652Z,99812.41
2023-04-16T22:12:06.181Z,99799.53
2023-04-16T22:14:36.903Z,99807.16
2023-04-16T22:17:04.490Z,99808.22
2023-04-16T22:19:31.749Z,99802.75
2023-04-16T22:21:59.132Z,99788.28
2023-04-16T22:24:26.272Z,99790.63
2023-04-16T22:26:53.438Z,99797.19
2023-04-16T22:29:20.554Z,99796.63
2023-04-16T22:31:47.794Z,99794.78
2023-04-16T22:34:15.279Z,99794.66
2023-04-16T22:36:42.435Z,99794.84
2023-04-16T22:39:09.999Z,99782.97
2023-04-16T22:41:37.539Z,99786.88
2023-04-16T22:44:04.650Z,99782.50
2023-04-16T22:46:31.868Z,99784.56
2023-04-16T22:49:00.279Z,99776.94
2023-04-16T22:51:27.446Z,99781.63
2023-04-16T22:53:55.155Z,99778.13
2023-04-16T22:56:22.367Z,99787.72
2023-04-16T22:58:49.534Z,99781.47
2023-04-16T23:01:16.700Z,99775.44
2023-04-16T23:03:44.117Z,99776.09
2023-04-16T23:06:11.253Z,99775.91
2023-04-16T23:08:38.426Z,99771.69
2023-04-16T23:11:05.569Z,99780.97
2023-04-16T23:13:32.737Z,99780.22
2023-04-16T23:16:00.043Z,99773.00
2023-04-16T23:18:27.204Z,99772.59
2023-04-16T23:20:54.868Z,99770.31
2023-04-16T23:23:21.988Z,99766.75
2023-04-16T23:25:52.377Z,99776.56
2023-04-16T23:28:19.722Z,99778.25
2023-04-16T23:30:47.436Z,99781.41
2023-04-16T23:33:14.603Z,99780.25
2023-04-16T23:35:41.920Z,99769.31
2023-04-16T23:38:09.058Z,99776.66
2023-04-16T23:40:36.565Z,99777.88
2023-04-16T23:43:03.864Z,99773.66
2023-04-16T23:45:31.095Z,99769.84
2023-04-16T23:47:58.351Z,99767.94
2023-04-16T23:50:25.694Z,99767.81
2023-04-16T23:52:52.898Z,99761.53
2023-04-16T23:55:20.025Z,99751.78
2023-04-16T23:57:47.472Z,99756.06
